Maulden, Kentucky
Current Conditions -  °F | °C
As of 11:53 AM on Thursday 30 Oct 2014 (Local Time) from KLOZ Reporting Station
Clear Clear  
Wind Chill: 51°   Ceiling: Unl
Heat Index: 51°   Visibility: 10mi
Dew Point: 35°   Wind: 3mph
Humidity: 54%   Direction: NA
Pressure: 30.14"   Gusts: NA
Location:  37.346°N, 83.8503°W
Report Text: KLOZ 301553Z AUTO VRB03KT 10SM CLR 11/02 A3014 RMK AO2 SLP207 T01060017
Loading
Personal Weather Stations






























Interactive Weather Map
Tropical Storm Tracking
New forecast layout! Learn more

10-Day Weather Forecast

Advertisements
Track Severe Weather on mobile